Time;durP1;ratioP1;P1;durP2;ratioP2;P2;SDS_P1;SDS_P2;PMS_P1;PMS_P2;Temp;Humidity;BMP_temperature;BMP_pressure;BME280_temperature;BME280_humidity;BME280_pressure;Samples;Min_cycle;Max_cycle;Signal;HPM_P1;HPM_P2
2021/04/11 04:01:09;;;;;;;36.78;21.02;;;7.50;99.90;;;;;;5681557;23;20306;-72
2021/04/11 04:03:37;;;;;;;40.50;24.70;;;7.50;99.90;;;;;;4972856;28;20208;-72
2021/04/11 04:06:09;;;;;;;43.00;26.42;;;7.50;99.90;;;;;;4973626;28;20286;-72
2021/04/11 04:08:35;;;;;;;50.88;28.50;;;7.50;99.90;;;;;;4973254;28;20212;-72
2021/04/11 04:11:15;;;;;;;40.70;25.50;;;7.50;99.90;;;;;;4973772;28;20232;-68
2021/04/11 04:13:53;;;;;;;44.63;25.90;;;7.50;99.90;;;;;;4972821;28;20208;-68
2021/04/11 04:16:29;;;;;;;37.53;23.60;;;7.50;99.90;;;;;;4973507;28;20263;-68
2021/04/11 04:19:23;;;;;;;49.50;26.27;;;7.50;99.90;;;;;;4973256;28;20219;-68
2021/04/11 04:22:06;;;;;;;42.85;24.75;;;7.50;99.90;;;;;;4974171;28;20302;-68
2021/04/11 04:24:42;;;;;;;51.88;30.25;;;7.50;99.90;;;;;;4975932;28;20208;-68
2021/04/11 04:27:22;;;;;;;49.25;29.85;;;7.60;99.90;;;;;;4977296;28;20308;-68
2021/04/11 04:30:01;;;;;;;20.40;15.50;;;7.60;99.90;;;;;;4977616;28;20208;-68
2021/04/11 04:32:34;;;;;;;49.72;29.73;;;7.60;99.90;;;;;;4968187;28;20227;-68
2021/04/11 04:35:10;;;;;;;39.92;22.42;;;7.60;99.90;;;;;;4977381;28;20219;-68
2021/04/11 04:37:49;;;;;;;59.53;35.03;;;7.60;99.90;;;;;;4968362;28;20664;-68
2021/04/11 04:40:29;;;;;;;52.65;32.60;;;7.60;99.90;;;;;;4976636;28;20528;-69
2021/04/11 04:42:59;;;;;;;48.47;31.48;;;7.60;99.90;;;;;;4976867;28;20263;-69
2021/04/11 04:45:32;;;;;;;57.28;31.48;;;7.60;99.90;;;;;;4976545;28;20220;-71
2021/04/11 04:48:11;;;;;;;56.45;33.78;;;7.60;99.90;;;;;;4976990;28;20303;-71
2021/04/11 04:50:42;;;;;;;61.15;34.25;;;7.70;99.90;;;;;;4976625;28;21677;-70
2021/04/11 04:53:15;;;;;;;56.67;30.92;;;7.70;99.90;;;;;;4976575;28;20562;-70
2021/04/11 04:55:46;;;;;;;51.05;31.55;;;7.70;99.90;;;;;;4976850;28;20201;-70
2021/04/11 04:58:15;;;;;;;38.85;24.88;;;7.70;99.90;;;;;;4976804;28;20679;-70
2021/04/11 05:00:48;;;;;;;51.35;32.38;;;7.70;99.90;;;;;;4976525;28;20232;-70
2021/04/11 05:03:18;;;;;;;53.78;31.70;;;7.70;99.90;;;;;;4976885;28;20204;-70
2021/04/11 05:05:47;;;;;;;44.20;27.45;;;7.70;99.90;;;;;;4976878;28;20200;-70
2021/04/11 05:08:17;;;;;;;53.50;33.67;;;7.70;99.90;;;;;;4976795;28;20591;-70
2021/04/11 05:10:48;;;;;;;49.40;30.10;;;7.70;99.90;;;;;;4976450;28;20627;-70
2021/04/11 05:13:19;;;;;;;46.83;30.55;;;7.80;99.90;;;;;;4975780;28;20216;-71
2021/04/11 05:15:49;;;;;;;53.20;31.25;;;7.80;99.90;;;;;;4976484;28;20214;-70
2021/04/11 05:18:20;;;;;;;52.92;31.40;;;7.80;99.90;;;;;;4966138;28;20267;-70
2021/04/11 05:20:52;;;;;;;50.33;31.08;;;7.80;99.90;;;;;;4976200;28;20228;-71
2021/04/11 05:23:22;;;;;;;48.53;30.55;;;7.80;99.90;;;;;;4956311;28;20213;-69
2021/04/11 05:25:53;;;;;;;43.20;27.20;;;7.80;99.90;;;;;;4964567;28;20201;-69
2021/04/11 05:28:24;;;;;;;44.45;29.20;;;7.80;99.90;;;;;;4974169;28;20202;-69
2021/04/11 05:30:57;;;;;;;46.90;27.27;;;7.80;99.90;;;;;;4976881;28;20228;-69
2021/04/11 05:33:25;;;;;;;41.30;27.25;;;7.90;99.90;;;;;;4974764;28;20205;-69
2021/04/11 05:36:00;;;;;;;51.75;32.10;;;7.90;99.90;;;;;;4976483;28;20582;-68
2021/04/11 05:38:33;;;;;;;44.97;29.83;;;7.90;99.90;;;;;;4975493;28;20278;-69
2021/04/11 05:41:06;;;;;;;47.63;31.27;;;7.90;99.90;;;;;;4976472;28;20251;-69
2021/04/11 05:43:38;;;;;;;47.47;31.20;;;7.90;99.90;;;;;;4975681;28;20219;-69
2021/04/11 05:46:12;;;;;;;48.85;30.23;;;7.90;99.90;;;;;;4976752;28;20216;-69
2021/04/11 05:48:44;;;;;;;56.47;32.80;;;7.90;99.90;;;;;;4977068;28;20208;-70
2021/04/11 05:51:14;;;;;;;41.60;25.80;;;8.00;99.90;;;;;;4977658;28;20271;-70
2021/04/11 05:53:45;;;;;;;51.25;31.65;;;8.00;99.90;;;;;;4976906;28;20205;-69
2021/04/11 05:56:16;;;;;;;55.05;33.63;;;8.00;99.90;;;;;;4977947;28;20216;-70
2021/04/11 05:58:49;;;;;;;54.70;32.15;;;8.00;99.90;;;;;;4976832;28;20590;-70
2021/04/11 06:01:20;;;;;;;54.25;32.22;;;8.00;99.90;;;;;;4976751;28;20264;-70
2021/04/11 06:03:53;;;;;;;53.65;32.35;;;8.10;99.90;;;;;;4976663;28;20220;-69
2021/04/11 06:06:25;;;;;;;57.10;34.35;;;8.10;99.90;;;;;;4976746;28;20231;-70
2021/04/11 06:09:00;;;;;;;58.67;34.17;;;8.10;99.90;;;;;;4976264;28;20205;-70
2021/04/11 06:11:36;;;;;;;61.70;34.40;;;8.20;99.90;;;;;;4976836;28;20232;-70
2021/04/11 06:14:07;;;;;;;52.95;34.42;;;8.20;99.90;;;;;;4977736;28;20200;-70
2021/04/11 06:16:34;;;;;;;55.40;29.63;;;8.30;99.90;;;;;;4978012;28;20249;-70
2021/04/11 06:19:02;;;;;;;59.05;37.35;;;8.30;99.90;;;;;;4974253;28;20208;-72
2021/04/11 06:21:43;;;;;;;61.60;37.05;;;8.40;99.90;;;;;;4977235;28;20287;-71
2021/04/11 06:24:21;;;;;;;62.00;35.92;;;8.40;99.90;;;;;;4975818;28;20196;-71
2021/04/11 06:26:55;;;;;;;60.80;37.83;;;8.40;99.90;;;;;;4976949;28;20228;-72
2021/04/11 06:29:24;;;;;;;61.90;36.83;;;8.40;99.90;;;;;;4976937;28;20656;-71
2021/04/11 06:31:59;;;;;;;67.35;39.92;;;8.40;99.90;;;;;;4976537;28;20239;-70
2021/04/11 06:34:32;;;;;;;59.38;35.58;;;8.40;99.90;;;;;;4976318;28;20200;-70
2021/04/11 06:37:02;;;;;;;60.72;39.10;;;8.40;99.90;;;;;;4975365;28;20193;-71
2021/04/11 06:39:33;;;;;;;59.33;37.78;;;8.40;99.90;;;;;;4974930;28;20259;-71
2021/04/11 06:42:29;;;;;;;64.53;40.25;;;8.50;99.90;;;;;;4975270;28;20237;-71
2021/04/11 06:45:24;;;;;;;60.80;36.83;;;8.50;99.90;;;;;;4974996;28;20196;-71
2021/04/11 06:48:18;;;;;;;66.75;38.63;;;8.60;99.90;;;;;;4976131;28;20351;-71
2021/04/11 06:51:00;;;;;;;66.53;38.08;;;8.60;99.90;;;;;;4974673;28;20275;-71
2021/04/11 06:53:58;;;;;;;67.80;40.33;;;8.60;99.90;;;;;;4974080;28;20221;-71
2021/04/11 06:56:36;;;;;;;67.50;40.88;;;8.70;99.90;;;;;;4974416;28;20208;-71
2021/04/11 06:59:16;;;;;;;64.85;40.38;;;8.70;99.90;;;;;;4973937;28;20208;-70
2021/04/11 07:02:06;;;;;;;64.93;39.17;;;8.70;99.90;;;;;;4973868;28;20302;-71
2021/04/11 07:05:09;;;;;;;59.90;37.70;;;8.70;99.90;;;;;;4973823;28;20228;-71
2021/04/11 07:08:14;;;;;;;67.80;39.00;;;8.70;99.90;;;;;;4973747;28;20243;-71
2021/04/11 07:10:59;;;;;;;66.30;39.33;;;8.70;99.90;;;;;;4973716;28;20221;-72
2021/04/11 07:14:12;;;;;;;71.60;40.42;;;8.70;99.90;;;;;;4973215;28;20251;-72
2021/04/11 07:17:07;;;;;;;70.65;39.88;;;8.70;99.90;;;;;;4974345;28;20196;-72
2021/04/11 07:20:07;;;;;;;65.07;39.75;;;8.70;99.90;;;;;;4974197;28;20211;-72
2021/04/11 07:23:24;;;;;;;74.93;41.67;;;8.70;99.90;;;;;;4957042;28;20209;-72
2021/04/11 07:26:05;;;;;;;70.80;41.60;;;8.80;99.90;;;;;;4962156;28;20249;-72
2021/04/11 07:28:38;;;;;;;68.80;44.05;;;8.80;99.90;;;;;;4973332;28;20209;-72
2021/04/11 07:31:15;;;;;;;68.18;42.63;;;8.80;99.90;;;;;;4973898;28;20225;-72
2021/04/11 07:34:07;;;;;;;71.78;44.20;;;8.90;99.90;;;;;;4972403;28;20201;-72
2021/04/11 07:36:45;;;;;;;66.22;40.92;;;8.90;99.90;;;;;;4973552;28;20661;-72
2021/04/11 07:39:24;;;;;;;68.93;41.42;;;9.00;99.90;;;;;;4973837;28;20209;-73
2021/04/11 07:42:12;;;;;;;66.65;43.10;;;9.00;99.90;;;;;;4974259;28;20228;-73
2021/04/11 07:44:57;;;;;;;77.07;44.58;;;9.00;99.90;;;;;;4973912;28;20231;-73
2021/04/11 07:47:42;;;;;;;76.85;43.60;;;9.10;99.90;;;;;;4973348;28;20223;-72
2021/04/11 07:50:20;;;;;;;67.85;40.63;;;9.00;99.90;;;;;;4973616;28;20608;-72
2021/04/11 07:53:06;;;;;;;68.20;42.03;;;9.00;99.90;;;;;;4972755;28;20204;-72
2021/04/11 07:55:43;;;;;;;72.63;43.47;;;9.00;99.90;;;;;;4973817;28;20219;-73
2021/04/11 07:59:00;;;;;;;110.68;66.57;;;9.10;99.90;;;;;;4968141;28;20241;-72
2021/04/11 08:02:00;;;;;;;177.38;97.47;;;9.10;99.90;;;;;;4933685;28;20600;-73
2021/04/11 08:04:38;;;;;;;86.25;48.78;;;9.10;99.90;;;;;;4932185;28;20225;-73
2021/04/11 08:07:15;;;;;;;77.43;48.28;;;9.10;99.90;;;;;;4966282;28;20224;-72
2021/04/11 08:09:57;;;;;;;69.35;45.55;;;9.20;99.90;;;;;;4973467;28;20215;-71
2021/04/11 08:12:49;;;;;;;75.65;44.60;;;9.40;99.90;;;;;;4972684;28;20220;-72
2021/04/11 08:15:20;;;;;;;91.78;59.08;;;9.50;99.90;;;;;;4973262;28;20209;-72
2021/04/11 08:18:15;;;;;;;65.03;42.33;;;9.70;99.90;;;;;;4973373;28;20289;-73
2021/04/11 08:21:12;;;;;;;100.53;67.20;;;9.90;99.90;;;;;;4973272;28;20232;-72
2021/04/11 08:24:21;;;;;;;64.43;41.65;;;10.00;99.90;;;;;;4971917;28;20594;-73
2021/04/11 08:27:35;;;;;;;60.58;41.25;;;10.20;99.90;;;;;;4972980;28;20711;-72
2021/04/11 08:30:09;;;;;;;56.72;38.53;;;10.30;99.90;;;;;;4898035;29;20297;-72
2021/04/11 08:33:21;;;;;;;55.10;36.45;;;10.40;99.90;;;;;;4969327;28;20208;-72
2021/04/11 08:36:40;;;;;;;48.72;36.88;;;10.50;99.90;;;;;;4943972;28;20212;-71
2021/04/11 08:39:28;;;;;;;51.45;36.95;;;10.60;99.90;;;;;;4961943;28;20213;-72
2021/04/11 08:42:05;;;;;;;42.42;32.70;;;10.80;99.90;;;;;;4973412;28;20225;-71
2021/04/11 08:44:49;;;;;;;43.10;31.50;;;10.90;99.90;;;;;;4976482;28;20207;-71
2021/04/11 08:47:26;;;;;;;41.85;31.35;;;10.90;99.90;;;;;;4973944;28;20225;-71
2021/04/11 08:49:58;;;;;;;44.30;30.80;;;11.00;99.90;;;;;;4972774;28;20200;-72
2021/04/11 08:52:34;;;;;;;44.03;32.35;;;11.10;99.90;;;;;;4972846;28;20229;-72
2021/04/11 08:55:05;;;;;;;41.22;29.70;;;11.20;99.90;;;;;;4973506;28;20215;-72
2021/04/11 08:57:40;;;;;;;35.30;26.80;;;11.40;99.90;;;;;;4974429;28;20204;-72
2021/04/11 09:00:15;;;;;;;32.50;25.85;;;11.40;99.90;;;;;;4975287;28;20583;-72
2021/04/11 09:03:06;;;;;;;33.47;26.00;;;11.40;99.90;;;;;;4973095;28;20216;-72
2021/04/11 09:05:40;;;;;;;35.05;26.15;;;11.40;99.90;;;;;;4973169;28;20341;-73
2021/04/11 09:08:15;;;;;;;31.90;26.10;;;11.40;99.90;;;;;;4971690;28;20252;-72
2021/04/11 09:10:58;;;;;;;27.52;23.17;;;11.40;99.90;;;;;;4975914;28;20255;-72
2021/04/11 09:13:34;;;;;;;30.95;23.70;;;11.40;99.90;;;;;;4973585;28;20602;-73
2021/04/11 09:16:05;;;;;;;27.38;21.45;;;11.40;99.90;;;;;;4977104;28;20208;-73
2021/04/11 09:18:39;;;;;;;26.45;22.17;;;11.40;99.90;;;;;;4976191;28;20216;-73
2021/04/11 09:21:42;;;;;;;25.55;20.38;;;11.50;99.90;;;;;;4976438;28;20602;-72
2021/04/11 09:24:12;;;;;;;26.17;21.15;;;11.60;99.90;;;;;;4948342;28;20209;-72
2021/04/11 09:27:26;;;;;;;24.27;19.88;;;11.70;99.90;;;;;;4957398;28;20717;-72
2021/04/11 09:29:59;;;;;;;20.42;17.30;;;11.80;99.90;;;;;;4966303;28;20201;-71
2021/04/11 09:32:48;;;;;;;23.02;17.00;;;11.90;99.90;;;;;;4968343;28;20233;-72
2021/04/11 09:35:22;;;;;;;18.55;16.52;;;12.00;99.90;;;;;;4973387;28;20571;-72
2021/04/11 09:38:25;;;;;;;17.25;15.52;;;12.00;99.90;;;;;;4975665;28;20204;-72
2021/04/11 09:41:29;;;;;;;20.35;16.48;;;12.00;99.90;;;;;;4975889;28;20276;-71
2021/04/11 09:44:18;;;;;;;21.52;16.95;;;12.00;99.90;;;;;;4915722;29;20218;-71
2021/04/11 09:46:57;;;;;;;18.30;15.45;;;11.90;99.90;;;;;;4970792;28;20217;-71
2021/04/11 09:49:40;;;;;;;21.25;17.63;;;11.90;99.90;;;;;;4976198;28;20574;-72
2021/04/11 09:52:45;;;;;;;18.23;15.50;;;11.90;99.90;;;;;;4974632;28;20216;-71
2021/04/11 09:55:19;;;;;;;21.80;18.85;;;12.10;99.90;;;;;;4975704;28;20208;-72
2021/04/11 09:58:13;;;;;;;20.52;18.20;;;12.30;99.90;;;;;;4975585;28;20200;-72
2021/04/11 10:00:42;;;;;;;16.80;15.10;;;12.50;99.90;;;;;;4975648;28;20236;-71
2021/04/11 10:03:27;;;;;;;14.33;13.00;;;12.60;99.90;;;;;;4969412;28;20460;-70
2021/04/11 10:06:12;;;;;;;16.60;15.10;;;12.70;99.90;;;;;;4975824;28;20459;-72
2021/04/11 10:09:04;;;;;;;13.73;12.40;;;12.70;99.90;;;;;;4975053;28;20510;-72
2021/04/11 10:11:39;;;;;;;15.00;13.50;;;12.70;99.90;;;;;;4975088;28;20291;-71
2021/04/11 10:14:16;;;;;;;13.90;12.50;;;12.80;99.90;;;;;;4973596;28;20769;-73
2021/04/11 10:16:53;;;;;;;12.53;11.43;;;13.00;99.90;;;;;;4973077;28;20452;-72
2021/04/11 10:19:32;;;;;;;12.90;11.80;;;13.10;99.90;;;;;;4964076;28;20456;-73
2021/04/11 10:22:12;;;;;;;13.10;11.80;;;13.20;99.90;;;;;;4974561;28;20534;-73
2021/04/11 10:24:59;;;;;;;10.10;9.30;;;13.30;99.90;;;;;;4976083;28;20466;-73
2021/04/11 10:27:28;;;;;;;10.97;9.97;;;13.50;99.90;;;;;;4976592;28;20483;-73
2021/04/11 10:29:57;;;;;;;10.30;9.30;;;13.70;99.90;;;;;;4974475;28;20865;-73
2021/04/11 10:32:30;;;;;;;9.33;8.63;;;14.00;99.90;;;;;;4974622;28;20550;-72
2021/04/11 10:35:06;;;;;;;9.53;8.80;;;14.20;99.90;;;;;;4974855;28;20464;-72
2021/04/11 10:37:37;;;;;;;8.50;7.90;;;14.20;99.90;;;;;;4974888;28;20482;-73
2021/04/11 10:40:26;;;;;;;9.30;8.40;;;14.00;99.90;;;;;;4975003;28;20460;-73
2021/04/11 10:43:04;;;;;;;8.23;7.53;;;14.00;99.90;;;;;;4975368;28;20464;-73
2021/04/11 10:45:37;;;;;;;8.97;8.17;;;14.00;99.90;;;;;;4974611;28;20490;-73
2021/04/11 10:48:31;;;;;;;7.17;6.60;;;13.80;99.90;;;;;;4975449;28;20495;-73
2021/04/11 10:51:13;;;;;;;8.03;7.33;;;13.70;99.90;;;;;;4966842;28;20509;-73
2021/04/11 10:53:48;;;;;;;7.13;6.60;;;13.60;99.90;;;;;;4963791;28;20538;-72
2021/04/11 10:56:39;;;;;;;6.40;6.00;;;13.50;99.90;;;;;;4973358;28;20467;-73
2021/04/11 10:59:23;;;;;;;4.87;4.67;;;13.40;99.90;;;;;;4955576;29;20838;-73
2021/04/11 11:02:22;;;;;;;5.33;5.03;;;13.40;99.90;;;;;;4971644;28;20500;-73
2021/04/11 11:05:18;;;;;;;4.67;4.43;;;13.20;99.90;;;;;;4928589;28;20832;-73
2021/04/11 11:07:55;;;;;;;4.97;4.60;;;13.10;99.90;;;;;;4973549;28;20554;-72
2021/04/11 11:10:31;;;;;;;6.30;5.93;;;13.00;99.90;;;;;;4973939;28;20208;-73
2021/04/11 11:13:16;;;;;;;6.57;6.07;;;13.10;99.90;;;;;;4970325;28;20218;-72
2021/04/11 11:16:12;;;;;;;5.83;5.43;;;13.30;99.90;;;;;;4964992;28;20269;-72
2021/04/11 11:19:15;;;;;;;6.03;5.47;;;13.50;99.90;;;;;;4971478;28;20491;-72
2021/04/11 11:22:06;;;;;;;5.33;5.00;;;13.60;99.90;;;;;;4971843;28;20491;-72
2021/04/11 11:25:00;;;;;;;5.40;5.10;;;13.60;99.90;;;;;;4971630;28;20472;-72
2021/04/11 11:27:48;;;;;;;5.33;5.13;;;13.70;99.90;;;;;;4973816;28;20514;-73
2021/04/11 11:30:31;;;;;;;5.87;5.57;;;13.70;99.90;;;;;;4972988;28;20956;-73
2021/04/11 11:33:18;;;;;;;5.40;5.20;;;13.60;99.90;;;;;;4973114;28;20463;-72
2021/04/11 11:35:53;;;;;;;4.83;4.63;;;13.50;99.90;;;;;;4967975;28;20464;-72
2021/04/11 11:38:26;;;;;;;5.73;5.53;;;13.50;99.90;;;;;;4981939;28;20499;-72
2021/04/11 11:41:04;;;;;;;4.50;4.40;;;13.50;99.90;;;;;;4981047;28;20586;-72
2021/04/11 11:43:36;;;;;;;4.80;4.60;;;13.40;99.90;;;;;;4972599;28;20483;-71
2021/04/11 11:46:15;;;;;;;4.80;4.60;;;13.40;99.90;;;;;;4971784;28;20468;-71
2021/04/11 11:48:53;;;;;;;5.60;5.30;;;13.50;99.90;;;;;;4967236;28;20827;-72
2021/04/11 11:51:34;;;;;;;5.00;4.80;;;13.30;99.90;;;;;;4966968;28;20495;-70
2021/04/11 11:54:08;;;;;;;6.40;6.00;;;13.20;99.90;;;;;;4973041;28;20463;-72
2021/04/11 11:56:41;;;;;;;6.07;5.77;;;13.10;99.90;;;;;;4972290;28;20472;-72
2021/04/11 11:59:12;;;;;;;6.20;5.90;;;13.00;99.90;;;;;;4972029;28;20464;-72
2021/04/11 12:01:46;;;;;;;6.60;6.20;;;12.80;99.90;;;;;;4973384;28;20488;-71
2021/04/11 12:04:32;;;;;;;6.75;6.25;;;12.80;99.90;;;;;;4971610;28;20471;-72
2021/04/11 12:07:02;;;;;;;6.73;6.30;;;12.90;99.90;;;;;;4971960;28;20224;-72
2021/04/11 12:09:33;;;;;;;5.93;5.43;;;13.00;99.90;;;;;;4970519;28;20482;-70
2021/04/11 12:12:04;;;;;;;5.77;5.37;;;12.90;99.90;;;;;;4956286;28;20479;-71
2021/04/11 12:14:36;;;;;;;11.60;8.40;;;12.90;99.90;;;;;;4972327;28;20554;-72
2021/04/11 12:17:10;;;;;;;7.88;7.30;;;12.80;99.90;;;;;;4971565;28;20838;-72
2021/04/11 12:19:42;;;;;;;9.90;9.02;;;12.80;99.90;;;;;;4970167;28;20285;-72
2021/04/11 12:22:15;;;;;;;9.03;8.23;;;12.70;99.90;;;;;;4970770;28;20243;-71
2021/04/11 12:24:51;;;;;;;9.23;8.43;;;12.60;99.90;;;;;;4972653;28;20950;-71
2021/04/11 12:27:27;;;;;;;12.68;11.43;;;12.50;99.90;;;;;;4972866;28;20479;-72
2021/04/11 12:29:54;;;;;;;10.23;9.32;;;12.30;99.90;;;;;;4972582;28;20208;-71
2021/04/11 12:32:30;;;;;;;11.23;10.18;;;12.10;99.90;;;;;;4971561;28;20601;-70
2021/04/11 12:35:05;;;;;;;10.80;9.70;;;12.00;99.90;;;;;;4971737;28;20226;-70
2021/04/11 12:37:38;;;;;;;9.43;8.63;;;12.00;99.90;;;;;;4972802;28;20223;-71
2021/04/11 12:40:25;;;;;;;8.77;7.97;;;12.00;99.90;;;;;;4971764;28;20204;-71
2021/04/11 12:42:56;;;;;;;7.32;6.72;;;11.90;99.90;;;;;;4973778;28;20212;-71
2021/04/11 12:45:27;;;;;;;8.25;7.45;;;11.80;99.90;;;;;;4974705;28;20224;-71
2021/04/11 12:48:05;;;;;;;7.80;7.20;;;11.50;99.90;;;;;;4975595;28;20341;-72
2021/04/11 12:50:34;;;;;;;8.52;7.63;;;11.30;99.90;;;;;;4967845;28;20228;-71
2021/04/11 12:53:17;;;;;;;8.38;7.65;;;11.10;99.90;;;;;;4971561;28;20219;-71
2021/04/11 12:55:50;;;;;;;9.88;8.88;;;10.80;99.90;;;;;;4975708;28;20204;-73
2021/04/11 12:58:27;;;;;;;9.52;8.52;;;10.80;99.90;;;;;;4975179;28;20212;-73
2021/04/11 13:01:02;;;;;;;7.88;7.18;;;10.90;99.90;;;;;;4976808;28;20278;-73
2021/04/11 13:03:33;;;;;;;7.35;6.65;;;11.10;99.90;;;;;;4974824;28;20212;-73
2021/04/11 13:06:11;;;;;;;8.57;7.88;;;11.00;99.90;;;;;;4957397;29;20209;-73
2021/04/11 13:08:54;;;;;;;8.68;7.85;;;10.90;99.90;;;;;;4970085;28;20696;-72
2021/04/11 13:11:28;;;;;;;8.02;7.35;;;10.80;99.90;;;;;;4976476;28;20231;-74
2021/04/11 13:13:59;;;;;;;7.93;7.25;;;10.60;99.90;;;;;;4975187;28;20641;-74
2021/04/11 13:16:35;;;;;;;7.63;7.03;;;10.40;99.90;;;;;;4977078;28;20209;-73
2021/04/11 13:19:06;;;;;;;7.50;6.90;;;10.30;99.90;;;;;;4974628;28;20216;-72
2021/04/11 13:21:37;;;;;;;6.78;6.28;;;10.00;99.90;;;;;;4974336;28;20736;-71
2021/04/11 13:24:12;;;;;;;8.15;6.95;;;10.00;99.90;;;;;;4973615;28;20200;-72
2021/04/11 13:26:43;;;;;;;7.05;6.45;;;9.80;99.90;;;;;;4965926;28;20211;-72
2021/04/11 13:29:21;;;;;;;6.18;5.72;;;9.70;99.90;;;;;;4975629;28;20213;-72
2021/04/11 13:31:54;;;;;;;6.90;6.05;;;9.60;99.90;;;;;;4974904;28;20539;-72
2021/04/11 13:34:25;;;;;;;6.00;5.50;;;9.60;99.90;;;;;;4974494;28;20546;-73
2021/04/11 13:36:52;;;;;;;7.00;6.40;;;9.50;99.90;;;;;;4975694;28;20249;-73
2021/04/11 13:39:27;;;;;;;6.70;6.20;;;9.40;99.90;;;;;;4975303;28;20560;-72
2021/04/11 13:42:23;;;;;;;5.50;5.20;;;9.40;99.90;;;;;;4974560;28;20254;-72
2021/04/11 13:45:00;;;;;;;7.00;6.40;;;9.30;99.90;;;;;;4975808;28;20236;-72
2021/04/11 13:47:35;;;;;;;6.45;5.95;;;9.20;99.90;;;;;;4975178;28;20279;-72
2021/04/11 13:50:05;;;;;;;6.18;5.60;;;9.10;99.90;;;;;;4976493;28;20613;-72
2021/04/11 13:52:40;;;;;;;7.90;5.90;;;9.10;99.90;;;;;;4971753;28;20212;-72
2021/04/11 13:55:17;;;;;;;20.52;15.00;;;9.00;99.90;;;;;;4972637;28;20656;-72
2021/04/11 13:57:49;;;;;;;32.90;18.98;;;8.90;99.90;;;;;;4975144;28;20184;-74
2021/04/11 14:00:37;;;;;;;9.82;8.93;;;9.00;99.90;;;;;;4966255;28;20346;-72
2021/04/11 14:03:15;;;;;;;7.72;7.00;;;9.00;99.90;;;;;;4969719;28;20233;-72
2021/04/11 14:05:43;;;;;;;8.02;6.85;;;8.90;99.90;;;;;;4971033;28;20526;-72
2021/04/11 14:08:18;;;;;;;8.40;7.70;;;8.80;99.90;;;;;;4970484;28;20223;-71
2021/04/11 14:10:51;;;;;;;8.95;8.15;;;8.70;99.90;;;;;;4974138;28;20237;-73
2021/04/11 14:13:23;;;;;;;8.52;7.70;;;8.60;99.90;;;;;;4973351;28;20215;-71
2021/04/11 14:15:58;;;;;;;9.85;8.95;;;8.50;99.90;;;;;;4975270;28;20263;-73
2021/04/11 14:18:36;;;;;;;10.45;9.40;;;8.40;99.90;;;;;;4973924;28;20208;-72
2021/04/11 14:21:10;;;;;;;9.70;8.80;;;8.40;99.90;;;;;;4974006;28;20228;-72
2021/04/11 14:23:52;;;;;;;6.50;6.07;;;8.40;99.90;;;;;;4972155;28;20668;-73
2021/04/11 14:26:25;;;;;;;5.93;5.43;;;8.30;99.90;;;;;;4975242;28;20280;-71
2021/04/11 14:28:57;;;;;;;5.63;5.22;;;8.20;99.90;;;;;;4974176;28;20228;-70
2021/04/11 14:31:30;;;;;;;4.97;4.72;;;8.00;99.90;;;;;;4975231;28;20229;-71
2021/04/11 14:34:01;;;;;;;4.32;4.05;;;7.90;99.90;;;;;;4972886;28;20557;-71
2021/04/11 14:36:35;;;;;;;3.53;3.42;;;7.90;99.90;;;;;;4958785;28;20209;-71
2021/04/11 14:39:11;;;;;;;4.70;4.50;;;7.80;99.90;;;;;;4972767;28;20206;-70
2021/04/11 14:41:41;;;;;;;3.47;3.05;;;7.80;99.90;;;;;;4975452;28;20243;-71
2021/04/11 14:44:09;;;;;;;3.92;3.72;;;7.80;99.90;;;;;;4973227;28;20675;-71
2021/04/11 14:46:44;;;;;;;3.45;3.22;;;7.80;99.90;;;;;;4974358;28;20296;-71
2021/04/11 14:49:15;;;;;;;2.67;2.58;;;7.80;99.90;;;;;;4972792;28;20307;-71
2021/04/11 14:51:55;;;;;;;3.35;3.15;;;7.70;99.90;;;;;;4967453;28;20251;-71
2021/04/11 14:54:29;;;;;;;2.65;2.55;;;7.70;99.90;;;;;;4973110;28;20205;-70
2021/04/11 14:57:07;;;;;;;3.97;3.78;;;7.70;99.90;;;;;;4973542;28;20303;-70
2021/04/11 14:59:36;;;;;;;4.50;4.07;;;7.70;99.90;;;;;;4974016;28;20205;-70
2021/04/11 15:02:19;;;;;;;3.70;3.60;;;7.70;99.90;;;;;;4972982;28;20240;-71
2021/04/11 15:04:56;;;;;;;3.00;2.80;;;7.70;99.90;;;;;;4960913;28;20324;-70
2021/04/11 15:07:29;;;;;;;2.90;2.60;;;7.70;99.90;;;;;;4972243;28;20227;-70
2021/04/11 15:10:05;;;;;;;2.45;2.35;;;7.60;99.90;;;;;;4972329;28;20239;-70
2021/04/11 15:12:39;;;;;;;2.47;2.38;;;7.50;99.90;;;;;;4971865;28;20212;-71
2021/04/11 15:15:14;;;;;;;3.80;3.60;;;7.50;99.90;;;;;;4971168;28;20608;-72
2021/04/11 15:17:51;;;;;;;4.13;3.92;;;7.50;99.90;;;;;;4972075;28;20253;-71
2021/04/11 15:20:21;;;;;;;3.72;3.53;;;7.40;99.90;;;;;;4973845;28;20300;-72
2021/04/11 15:23:03;;;;;;;2.85;2.75;;;7.40;99.90;;;;;;4971455;28;20215;-72
2021/04/11 15:25:47;;;;;;;3.15;2.83;;;7.40;99.90;;;;;;4954488;28;20677;-72
2021/04/11 15:28:23;;;;;;;2.55;2.45;;;7.30;99.90;;;;;;4970125;28;20240;-72
2021/04/11 15:31:02;;;;;;;5.00;4.65;;;7.20;99.90;;;;;;4974053;28;20231;-72
2021/04/11 15:33:31;;;;;;;3.00;3.00;;;7.30;99.90;;;;;;4969701;28;20255;-71
2021/04/11 15:36:08;;;;;;;3.60;3.50;;;7.30;99.90;;;;;;4969113;28;20219;-71
2021/04/11 15:38:43;;;;;;;4.40;4.00;;;7.20;99.90;;;;;;4973261;28;20258;-71
2021/04/11 15:41:13;;;;;;;3.60;3.50;;;7.10;99.90;;;;;;4972807;28;20227;-71
2021/04/11 15:43:55;;;;;;;3.90;3.72;;;7.10;99.90;;;;;;4972269;28;20687;-71
2021/04/11 15:46:26;;;;;;;3.25;2.90;;;7.00;99.90;;;;;;4973034;28;20638;-71
2021/04/11 15:48:59;;;;;;;3.20;3.00;;;7.00;99.90;;;;;;4972485;28;20330;-71
2021/04/11 15:51:35;;;;;;;3.85;3.65;;;6.90;99.90;;;;;;4973045;28;20254;-71
2021/04/11 15:54:16;;;;;;;4.35;4.03;;;6.90;99.90;;;;;;4971629;28;20204;-71
2021/04/11 15:56:53;;;;;;;4.50;4.20;;;6.90;99.90;;;;;;4973307;28;20235;-71
2021/04/11 15:59:24;;;;;;;3.80;3.70;;;6.90;99.90;;;;;;4972730;28;20223;-71
2021/04/11 16:01:55;;;;;;;3.22;3.03;;;6.90;99.90;;;;;;4973975;28;20290;-72
2021/04/11 16:04:30;;;;;;;3.70;3.55;;;6.90;99.90;;;;;;4972390;28;20299;-71
2021/04/11 16:07:03;;;;;;;2.90;2.70;;;6.90;99.90;;;;;;4972951;28;20208;-71
2021/04/11 16:09:32;;;;;;;3.33;3.13;;;6.80;99.90;;;;;;4973362;28;20282;-72
2021/04/11 16:12:27;;;;;;;2.95;2.85;;;6.80;99.90;;;;;;4972682;28;20720;-71
2021/04/11 16:15:11;;;;;;;3.83;3.63;;;6.80;99.90;;;;;;4971936;28;20534;-71
2021/04/11 16:17:51;;;;;;;3.30;3.10;;;6.80;99.90;;;;;;4971926;28;20204;-70
2021/04/11 16:20:21;;;;;;;5.05;3.10;;;6.70;99.90;;;;;;4973495;28;20208;-71
2021/04/11 16:22:55;;;;;;;3.50;3.40;;;6.70;99.90;;;;;;4972934;28;20208;-76
2021/04/11 16:25:29;;;;;;;2.50;2.40;;;6.70;99.90;;;;;;4975346;28;20238;-74
2021/04/11 16:28:26;;;;;;;2.50;2.22;;;6.60;99.90;;;;;;4975073;28;20224;-75
2021/04/11 16:31:21;;;;;;;2.72;2.65;;;6.60;99.90;;;;;;4974934;28;20571;-75
2021/04/11 16:33:59;;;;;;;3.30;3.10;;;6.50;99.90;;;;;;4949324;28;20209;-74
2021/04/11 16:36:31;;;;;;;2.15;2.15;;;6.50;99.90;;;;;;4974989;28;20270;-74
2021/04/11 16:39:13;;;;;;;3.15;2.40;;;6.50;99.90;;;;;;4974028;28;20216;-74
2021/04/11 16:41:54;;;;;;;2.65;2.65;;;6.50;99.90;;;;;;4968332;28;20705;-74
2021/04/11 16:44:33;;;;;;;2.80;2.70;;;6.50;99.90;;;;;;4975595;28;20274;-75
2021/04/11 16:47:04;;;;;;;2.88;2.78;;;6.50;99.90;;;;;;4974945;28;20683;-74
2021/04/11 16:49:38;;;;;;;2.50;2.50;;;6.40;99.90;;;;;;4975502;28;20192;-75
2021/04/11 16:52:13;;;;;;;3.47;3.28;;;6.40;99.90;;;;;;4975165;28;20704;-75
2021/04/11 16:54:46;;;;;;;2.85;2.75;;;6.50;99.90;;;;;;4970699;28;20209;-76
2021/04/11 16:57:17;;;;;;;2.00;2.00;;;6.50;99.90;;;;;;4976365;28;20189;-76
2021/04/11 16:59:53;;;;;;;2.00;1.90;;;6.40;99.90;;;;;;4978298;28;20652;-76
2021/04/11 17:02:31;;;;;;;3.67;3.20;;;6.40;99.90;;;;;;4974436;28;20303;-75
2021/04/11 17:05:10;;;;;;;2.15;1.98;;;6.40;99.90;;;;;;4972396;28;20271;-75
2021/04/11 17:07:46;;;;;;;3.42;2.53;;;6.40;99.90;;;;;;4975953;28;20224;-75
2021/04/11 17:10:23;;;;;;;2.05;1.95;;;6.40;99.90;;;;;;4960512;28;20216;-74
2021/04/11 17:13:04;;;;;;;3.10;2.60;;;6.40;99.90;;;;;;4974776;28;20212;-74
2021/04/11 17:15:33;;;;;;;1.52;1.52;;;6.30;99.90;;;;;;4973454;28;20201;-73
2021/04/11 17:18:04;;;;;;;2.10;2.10;;;6.30;99.90;;;;;;4973537;28;20286;-74
2021/04/11 17:20:35;;;;;;;1.45;1.45;;;6.30;99.90;;;;;;4973702;28;20228;-74
2021/04/11 17:23:12;;;;;;;1.75;1.65;;;6.30;99.90;;;;;;4969146;28;20209;-74
2021/04/11 17:25:45;;;;;;;2.42;2.33;;;6.30;99.90;;;;;;4961819;28;20208;-74
2021/04/11 17:28:16;;;;;;;2.47;2.38;;;6.30;99.90;;;;;;4969976;28;20231;-74
2021/04/11 17:30:51;;;;;;;3.20;2.70;;;6.30;99.90;;;;;;4974763;28;20280;-74
2021/04/11 17:33:25;;;;;;;2.40;2.40;;;6.30;99.90;;;;;;4975165;28;20215;-74
2021/04/11 17:36:00;;;;;;;1.42;1.42;;;6.30;99.90;;;;;;4974969;28;20672;-74
2021/04/11 17:38:43;;;;;;;3.15;1.75;;;6.30;99.90;;;;;;4975875;28;20923;-74
2021/04/11 17:41:23;;;;;;;1.70;1.70;;;6.30;99.90;;;;;;4975464;28;20228;-74